createdAt,value
2019-01-25T00:00:59.699Z,7.78
2019-01-25T00:03:30.028Z,7.80
2019-01-25T00:06:00.383Z,7.82
2019-01-25T00:08:31.129Z,7.94
2019-01-25T00:11:03.202Z,7.92
2019-01-25T00:13:33.754Z,7.96
2019-01-25T00:16:06.382Z,7.97
2019-01-25T00:18:37.085Z,8.03
2019-01-25T00:21:09.146Z,8.13
2019-01-25T00:23:39.572Z,8.14
2019-01-25T00:26:10.501Z,8.11
2019-01-25T00:28:40.935Z,8.13
2019-01-25T00:31:11.725Z,8.08
2019-01-25T00:33:42.154Z,8.00
2019-01-25T00:36:12.962Z,7.99
2019-01-25T00:38:43.421Z,7.89
2019-01-25T00:41:13.736Z,7.96
2019-01-25T00:43:44.179Z,7.98
2019-01-25T00:46:14.583Z,7.91
2019-01-25T00:48:44.874Z,7.92
2019-01-25T00:51:16.231Z,8.01
2019-01-25T00:53:46.872Z,7.97
2019-01-25T00:56:17.638Z,8.05
2019-01-25T00:58:48.067Z,8.11
2019-01-25T01:01:18.546Z,8.17
2019-01-25T01:03:48.897Z,8.17
2019-01-25T01:06:19.202Z,8.22
2019-01-25T01:08:50.832Z,8.25
2019-01-25T01:11:21.170Z,8.30
2019-01-25T01:13:51.569Z,8.22
2019-01-25T01:16:22.009Z,8.17
2019-01-25T01:18:52.372Z,8.13
2019-01-25T01:21:22.705Z,8.09
2019-01-25T01:23:54.953Z,8.05
2019-01-25T01:26:25.749Z,8.07
2019-01-25T01:28:56.344Z,7.98
2019-01-25T01:31:27.084Z,7.88
2019-01-25T01:33:57.813Z,7.86
2019-01-25T01:36:29.615Z,7.90
2019-01-25T01:39:00.511Z,7.90
2019-01-25T01:41:32.712Z,7.78
2019-01-25T01:44:02.991Z,7.85
2019-01-25T01:46:33.939Z,7.73
2019-01-25T01:49:04.318Z,7.59
2019-01-25T01:51:35.186Z,7.49
2019-01-25T01:54:06.132Z,7.45
2019-01-25T01:56:36.823Z,7.36
2019-01-25T01:59:07.336Z,7.36
2019-01-25T02:01:40.460Z,7.32
2019-01-25T02:04:13.214Z,7.22
2019-01-25T02:06:44.403Z,7.20
2019-01-25T02:09:15.089Z,7.17
2019-01-25T02:11:45.682Z,7.19
2019-01-25T02:14:16.442Z,7.15
2019-01-25T02:16:47.101Z,7.18
2019-01-25T02:19:17.729Z,7.17
2019-01-25T02:21:48.412Z,7.16
2019-01-25T02:24:19.006Z,7.18
2019-01-25T02:26:49.634Z,7.18
2019-01-25T02:29:21.544Z,7.11
2019-01-25T02:31:52.245Z,7.14
2019-01-25T02:34:22.726Z,7.13
2019-01-25T02:36:53.496Z,7.13
2019-01-25T02:39:24.132Z,6.99
2019-01-25T02:41:54.859Z,6.94
2019-01-25T02:44:25.693Z,6.94
2019-01-25T02:46:56.439Z,6.83
2019-01-25T02:49:27.063Z,6.92
2019-01-25T02:51:57.755Z,6.93
2019-01-25T02:54:28.635Z,6.94
2019-01-25T02:57:00.623Z,6.89
2019-01-25T02:59:31.276Z,6.84
2019-01-25T03:02:02.195Z,6.87
2019-01-25T03:04:34.568Z,6.84
2019-01-25T03:07:05.162Z,6.81
2019-01-25T03:09:35.665Z,6.75
2019-01-25T03:12:06.114Z,6.74
2019-01-25T03:14:36.505Z,6.69
2019-01-25T03:17:06.848Z,6.61
2019-01-25T03:19:37.242Z,6.59
2019-01-25T03:22:07.758Z,6.59
2019-01-25T03:24:38.103Z,6.53
2019-01-25T03:27:09.319Z,6.47
2019-01-25T03:29:39.704Z,6.46
2019-01-25T03:32:10.228Z,6.41
2019-01-25T03:34:40.746Z,6.32
2019-01-25T03:37:11.133Z,6.32
2019-01-25T03:39:42.523Z,6.28
2019-01-25T03:42:13.299Z,6.21
2019-01-25T03:44:45.940Z,6.14
2019-01-25T03:47:17.859Z,6.12
2019-01-25T03:49:48.194Z,6.07
2019-01-25T03:52:19.116Z,6.19
2019-01-25T03:54:49.476Z,6.18
2019-01-25T03:57:20.292Z,6.19
2019-01-25T03:59:50.734Z,6.06
2019-01-25T04:02:21.060Z,6.03
2019-01-25T04:04:51.381Z,6.03
2019-01-25T04:07:21.780Z,6.02
2019-01-25T04:09:52.201Z,5.98
2019-01-25T04:12:22.522Z,5.88
2019-01-25T04:14:53.098Z,5.87
2019-01-25T04:17:24.011Z,5.87
2019-01-25T04:19:54.879Z,5.82
2019-01-25T04:22:25.466Z,5.74
2019-01-25T04:24:55.797Z,5.74
2019-01-25T04:27:27.246Z,5.69
2019-01-25T04:29:57.616Z,5.64
2019-01-25T04:32:28.513Z,5.58
2019-01-25T04:34:58.869Z,5.62
2019-01-25T04:37:29.292Z,5.64
2019-01-25T04:39:59.802Z,5.54
2019-01-25T04:42:30.135Z,5.60
2019-01-25T04:45:00.635Z,5.52
2019-01-25T04:47:31.150Z,5.43
2019-01-25T04:50:01.472Z,5.48
2019-01-25T04:52:31.841Z,5.33
2019-01-25T04:55:08.900Z,5.39
2019-01-25T04:57:39.338Z,5.43
2019-01-25T05:00:11.749Z,5.63
2019-01-25T05:02:42.329Z,5.59
2019-01-25T05:05:15.872Z,5.58
2019-01-25T05:07:46.386Z,5.59
2019-01-25T05:10:16.940Z,5.66
2019-01-25T05:12:53.419Z,5.72
2019-01-25T05:15:23.850Z,5.55
2019-01-25T05:17:57.577Z,5.65
2019-01-25T05:20:28.140Z,5.66
2019-01-25T05:22:59.741Z,5.56
2019-01-25T05:25:31.040Z,5.50
2019-01-25T05:28:18.822Z,5.53
2019-01-25T05:31:01.027Z,5.59
2019-01-25T05:33:31.322Z,5.52
2019-01-25T05:36:02.144Z,5.48
2019-01-25T05:38:32.577Z,5.47
2019-01-25T05:41:05.297Z,5.44
2019-01-25T05:43:43.785Z,5.45
2019-01-25T05:46:14.540Z,5.48
2019-01-25T05:48:44.847Z,5.48
2019-01-25T05:51:16.713Z,5.47
2019-01-25T05:53:54.081Z,5.51
2019-01-25T05:56:25.446Z,5.44
2019-01-25T05:58:56.064Z,5.45
2019-01-25T06:01:26.690Z,5.51
2019-01-25T06:03:57.598Z,5.48
2019-01-25T06:06:28.493Z,5.48
2019-01-25T06:08:59.106Z,5.42
2019-01-25T06:11:35.369Z,5.41
2019-01-25T06:14:03.939Z,5.42
2019-01-25T06:16:36.450Z,5.42
2019-01-25T06:19:07.156Z,5.43
2019-01-25T06:21:37.793Z,5.51
2019-01-25T06:24:08.837Z,5.54
2019-01-25T06:26:42.499Z,5.62
2019-01-25T06:29:13.043Z,5.63
2019-01-25T06:31:43.794Z,5.53
2019-01-25T06:34:14.440Z,5.52
2019-01-25T06:36:45.093Z,5.54
2019-01-25T06:39:16.026Z,5.51
2019-01-25T06:41:46.764Z,5.57
2019-01-25T06:44:17.240Z,5.62
2019-01-25T06:46:47.888Z,5.67
2019-01-25T06:49:18.862Z,5.72
2019-01-25T06:51:49.524Z,5.79
2019-01-25T06:54:20.168Z,5.77
2019-01-25T06:56:51.068Z,5.82
2019-01-25T06:59:27.781Z,5.88
2019-01-25T07:02:28.107Z,5.94
2019-01-25T07:04:58.655Z,5.95
2019-01-25T07:07:33.841Z,6.02
2019-01-25T07:10:05.972Z,6.01
2019-01-25T07:12:36.450Z,6.08
2019-01-25T07:15:08.057Z,5.98
2019-01-25T07:17:38.986Z,6.00
2019-01-25T07:20:11.663Z,6.05
2019-01-25T07:22:42.381Z,6.11
2019-01-25T07:25:13.862Z,6.11
2019-01-25T07:27:45.518Z,6.06
2019-01-25T07:30:16.417Z,6.15
2019-01-25T07:32:47.207Z,6.11
2019-01-25T07:35:17.812Z,6.14
2019-01-25T07:37:48.369Z,6.20
2019-01-25T07:40:20.339Z,6.26
2019-01-25T07:42:51.172Z,6.21
2019-01-25T07:45:23.185Z,6.24
2019-01-25T07:47:53.845Z,6.25
2019-01-25T07:50:24.437Z,6.32
2019-01-25T07:52:56.155Z,6.35
2019-01-25T07:55:26.964Z,6.49
2019-01-25T07:57:57.590Z,6.55
2019-01-25T08:00:28.301Z,6.60
2019-01-25T08:02:59.117Z,6.59
2019-01-25T08:05:32.153Z,6.67
2019-01-25T08:08:02.903Z,6.71
2019-01-25T08:10:33.741Z,6.77
2019-01-25T08:13:04.344Z,6.88
2019-01-25T08:15:35.375Z,6.98
2019-01-25T08:18:06.112Z,6.78
2019-01-25T08:20:37.785Z,6.98
2019-01-25T08:23:08.582Z,7.00
2019-01-25T08:25:40.519Z,7.18
2019-01-25T08:28:10.995Z,7.25
2019-01-25T08:30:41.726Z,7.32
2019-01-25T08:33:12.418Z,7.40
2019-01-25T08:35:43.083Z,7.50
2019-01-25T08:38:15.191Z,7.48
2019-01-25T08:40:46.150Z,7.61
2019-01-25T08:43:17.014Z,7.62
2019-01-25T08:45:49.298Z,7.65
2019-01-25T08:48:20.213Z,7.72
2019-01-25T08:50:50.801Z,7.65
2019-01-25T08:53:22.665Z,7.70
2019-01-25T08:55:53.627Z,7.81
2019-01-25T08:58:24.372Z,7.78
2019-01-25T09:00:55.664Z,7.91
2019-01-25T09:03:27.567Z,8.11
2019-01-25T09:05:58.405Z,8.11
2019-01-25T09:08:29.086Z,8.17
2019-01-25T09:10:59.839Z,8.25
2019-01-25T09:13:30.260Z,8.24
2019-01-25T09:16:00.823Z,8.24
2019-01-25T09:18:33.508Z,8.34
2019-01-25T09:21:04.274Z,8.29
2019-01-25T09:23:35.156Z,8.35
2019-01-25T09:26:06.481Z,8.39
2019-01-25T09:28:36.864Z,8.45
2019-01-25T09:31:08.969Z,8.54
2019-01-25T09:33:39.498Z,8.75
2019-01-25T09:36:10.287Z,8.74
2019-01-25T09:38:41.288Z,8.70
2019-01-25T09:41:11.887Z,8.55
2019-01-25T09:43:42.500Z,8.61
2019-01-25T09:46:13.100Z,8.41
2019-01-25T09:48:44.522Z,8.65
2019-01-25T09:51:15.010Z,8.80
2019-01-25T09:53:46.606Z,8.79
2019-01-25T09:56:17.368Z,8.75
2019-01-25T09:58:49.449Z,8.77
2019-01-25T10:01:20.188Z,8.82
2019-01-25T10:03:51.707Z,8.81
2019-01-25T10:06:22.529Z,8.89
2019-01-25T10:08:53.099Z,8.86
2019-01-25T10:11:25.503Z,8.80
2019-01-25T10:13:56.011Z,8.78
2019-01-25T10:16:26.657Z,9.04
2019-01-25T10:18:57.576Z,9.04
2019-01-25T10:21:29.808Z,8.97
2019-01-25T10:24:00.194Z,9.08
2019-01-25T10:26:30.946Z,9.08
2019-01-25T10:29:01.575Z,8.97
2019-01-25T10:31:32.626Z,8.76
2019-01-25T10:34:03.188Z,8.89
2019-01-25T10:36:33.843Z,8.97
2019-01-25T10:39:05.866Z,8.96
2019-01-25T10:41:37.857Z,9.04
2019-01-25T10:44:10.244Z,8.95
2019-01-25T10:46:41.472Z,9.03
2019-01-25T10:49:13.172Z,9.23
2019-01-25T10:51:43.917Z,9.23
2019-01-25T10:54:14.528Z,9.06
2019-01-25T10:56:45.266Z,9.15
2019-01-25T10:59:16.304Z,9.15
2019-01-25T11:01:47.012Z,9.14
2019-01-25T11:04:17.603Z,9.14
2019-01-25T11:06:49.526Z,9.15
2019-01-25T11:09:21.931Z,9.19
2019-01-25T11:11:52.491Z,8.91
2019-01-25T11:14:23.094Z,8.98
2019-01-25T11:16:54.038Z,9.07
2019-01-25T11:19:24.632Z,9.13
2019-01-25T11:21:56.834Z,9.32
2019-01-25T11:24:27.309Z,9.24
2019-01-25T11:27:00.377Z,9.24
2019-01-25T11:29:30.159Z,9.42
2019-01-25T11:32:01.219Z,9.45
2019-01-25T11:34:33.117Z,9.64
2019-01-25T11:37:03.867Z,9.82
2019-01-25T11:39:36.517Z,9.67
2019-01-25T11:42:07.098Z,9.67
2019-01-25T11:44:37.716Z,9.80
2019-01-25T11:47:08.887Z,9.72
2019-01-25T11:49:40.165Z,9.72
2019-01-25T11:52:13.246Z,9.59
2019-01-25T11:54:44.049Z,9.59
2019-01-25T11:57:15.137Z,9.53
2019-01-25T11:59:45.632Z,9.26
2019-01-25T12:02:20.877Z,9.10
2019-01-25T12:04:48.708Z,9.10
2019-01-25T12:07:19.292Z,8.86
2019-01-25T12:09:50.907Z,8.86
2019-01-25T12:12:21.571Z,8.76
2019-01-25T12:14:53.702Z,8.72
2019-01-25T12:17:26.411Z,8.74
2019-01-25T12:19:57.976Z,8.74
2019-01-25T12:22:28.692Z,8.73
2019-01-25T12:24:59.811Z,8.91
2019-01-25T12:27:30.460Z,8.91
2019-01-25T12:30:00.956Z,9.04
2019-01-25T12:32:32.926Z,9.03
2019-01-25T12:35:07.356Z,9.03
2019-01-25T12:37:36.209Z,8.97
2019-01-25T12:40:09.766Z,8.99
2019-01-25T12:42:42.281Z,8.98
2019-01-25T12:45:15.638Z,8.95
2019-01-25T12:47:47.519Z,9.10
2019-01-25T12:50:22.725Z,9.20
2019-01-25T12:52:54.295Z,9.28
2019-01-25T12:55:25.483Z,9.33
2019-01-25T12:57:56.133Z,9.33
2019-01-25T13:00:26.792Z,9.29
2019-01-25T13:02:58.981Z,9.22
2019-01-25T13:05:29.508Z,9.16
2019-01-25T13:08:00.304Z,8.99
2019-01-25T13:10:31.133Z,8.99
2019-01-25T13:13:01.536Z,8.90
2019-01-25T13:15:32.409Z,8.87
2019-01-25T13:18:02.907Z,8.87
2019-01-25T13:20:39.462Z,8.89
2019-01-25T13:23:08.407Z,8.89
2019-01-25T13:25:39.022Z,8.87
2019-01-25T13:28:09.753Z,8.88
2019-01-25T13:30:41.876Z,8.84
2019-01-25T13:33:13.014Z,8.86
2019-01-25T13:35:43.928Z,8.81
2019-01-25T13:38:14.426Z,8.81
2019-01-25T13:40:44.996Z,8.85
2019-01-25T13:43:15.492Z,8.95
2019-01-25T13:45:46.858Z,9.11
2019-01-25T13:48:17.493Z,9.11
2019-01-25T13:50:48.024Z,9.22
2019-01-25T13:53:19.656Z,9.25
2019-01-25T13:55:50.102Z,9.22
2019-01-25T13:58:20.541Z,9.22
2019-01-25T14:00:52.552Z,9.13
2019-01-25T14:03:23.419Z,9.10
2019-01-25T14:05:56.853Z,9.04
2019-01-25T14:08:27.534Z,9.01
2019-01-25T14:10:58.104Z,8.98
2019-01-25T14:13:28.601Z,8.84
2019-01-25T14:15:59.793Z,8.84
2019-01-25T14:18:31.106Z,8.82
2019-01-25T14:21:01.766Z,8.79
2019-01-25T14:23:33.057Z,8.73
2019-01-25T14:26:04.414Z,8.77
2019-01-25T14:28:36.254Z,8.69
2019-01-25T14:31:06.948Z,8.63
2019-01-25T14:33:37.495Z,8.69
2019-01-25T14:36:08.259Z,8.64
2019-01-25T14:38:38.949Z,8.60
2019-01-25T14:41:09.629Z,8.48
2019-01-25T14:43:40.200Z,8.51
2019-01-25T14:46:10.815Z,8.45
2019-01-25T14:48:41.883Z,8.32
2019-01-25T14:51:13.524Z,8.27
2019-01-25T14:53:44.340Z,8.21
2019-01-25T14:56:14.839Z,8.18
2019-01-25T14:58:45.725Z,8.14
2019-01-25T15:01:16.407Z,8.09
2019-01-25T15:03:47.030Z,8.13
2019-01-25T15:06:17.790Z,8.06
2019-01-25T15:08:48.513Z,7.99
2019-01-25T15:11:20.232Z,8.00
2019-01-25T15:13:50.968Z,7.92
2019-01-25T15:16:21.503Z,7.86
2019-01-25T15:18:52.889Z,7.78
2019-01-25T15:21:23.663Z,7.76
2019-01-25T15:23:56.548Z,7.72
2019-01-25T15:26:27.142Z,7.70
2019-01-25T15:28:57.738Z,7.64
2019-01-25T15:31:28.613Z,7.70
2019-01-25T15:33:59.157Z,7.67
2019-01-25T15:36:29.785Z,7.68
2019-01-25T15:39:00.344Z,7.65
2019-01-25T15:41:31.795Z,7.66
2019-01-25T15:44:09.840Z,7.64
2019-01-25T15:46:34.766Z,7.60
2019-01-25T15:49:05.490Z,7.61
2019-01-25T15:51:36.060Z,7.56
2019-01-25T15:54:07.760Z,7.52
2019-01-25T15:56:38.489Z,7.61
2019-01-25T15:59:09.251Z,7.55
2019-01-25T16:01:39.760Z,7.62
2019-01-25T16:04:10.435Z,7.57
2019-01-25T16:06:41.681Z,7.59
2019-01-25T16:09:14.379Z,7.60
2019-01-25T16:11:45.134Z,7.63
2019-01-25T16:14:18.132Z,7.64
2019-01-25T16:16:48.300Z,7.61
2019-01-25T16:19:19.383Z,7.53
2019-01-25T16:21:49.919Z,7.55
2019-01-25T16:24:20.570Z,7.56
2019-01-25T16:26:51.160Z,7.51
2019-01-25T16:29:21.652Z,7.53
2019-01-25T16:31:52.472Z,7.50
2019-01-25T16:34:23.200Z,7.49
2019-01-25T16:36:53.770Z,7.50
2019-01-25T16:39:25.682Z,7.50
2019-01-25T16:41:56.312Z,7.47
2019-01-25T16:44:28.034Z,7.44
2019-01-25T16:46:59.855Z,7.48
2019-01-25T16:49:32.199Z,7.46
2019-01-25T16:52:02.907Z,7.44
2019-01-25T16:54:33.456Z,7.39
2019-01-25T16:57:05.531Z,7.37
2019-01-25T16:59:36.240Z,7.37
2019-01-25T17:02:07.011Z,7.32
2019-01-25T17:04:38.550Z,7.37
2019-01-25T17:07:09.405Z,7.32
2019-01-25T17:09:40.047Z,7.32
2019-01-25T17:12:10.586Z,7.31
2019-01-25T17:14:41.162Z,7.27
2019-01-25T17:17:12.900Z,7.19
2019-01-25T17:19:43.435Z,7.21
2019-01-25T17:22:13.985Z,7.28
2019-01-25T17:24:44.687Z,7.29
2019-01-25T17:27:15.903Z,7.22
2019-01-25T17:29:46.970Z,7.23
2019-01-25T17:32:17.646Z,7.21
2019-01-25T17:34:48.380Z,7.22
2019-01-25T17:37:19.093Z,7.17
2019-01-25T17:39:49.806Z,7.16
2019-01-25T17:42:20.412Z,7.21
2019-01-25T17:44:51.639Z,7.22
2019-01-25T17:47:23.321Z,7.23
2019-01-25T17:49:55.178Z,7.28
2019-01-25T17:52:26.715Z,7.26
2019-01-25T17:54:57.592Z,7.30
2019-01-25T17:57:28.305Z,7.27
2019-01-25T17:59:59.528Z,7.29
2019-01-25T18:02:30.243Z,7.27
2019-01-25T18:05:00.798Z,7.26
2019-01-25T18:07:34.008Z,7.32
2019-01-25T18:10:05.207Z,7.33
2019-01-25T18:12:35.573Z,7.31
2019-01-25T18:15:07.648Z,7.39
2019-01-25T18:17:39.516Z,7.40
2019-01-25T18:20:12.312Z,7.40
2019-01-25T18:22:42.918Z,7.46
2019-01-25T18:25:15.743Z,7.45
2019-01-25T18:27:50.015Z,7.51
2019-01-25T18:30:25.565Z,7.53
2019-01-25T18:32:57.317Z,7.55
2019-01-25T18:35:29.042Z,7.55
2019-01-25T18:37:59.844Z,7.53
2019-01-25T18:40:32.094Z,7.51
2019-01-25T18:43:02.596Z,7.57
2019-01-25T18:45:34.474Z,7.59
2019-01-25T18:48:07.236Z,7.60
2019-01-25T18:50:37.923Z,7.63
2019-01-25T18:53:10.048Z,7.69
2019-01-25T18:55:40.966Z,7.69
2019-01-25T18:58:12.096Z,7.72
2019-01-25T19:00:42.760Z,7.67
2019-01-25T19:03:15.530Z,7.67
2019-01-25T19:05:46.345Z,7.61
2019-01-25T19:08:16.960Z,7.58
2019-01-25T19:10:50.387Z,7.63
2019-01-25T19:13:22.063Z,7.63
2019-01-25T19:15:53.591Z,7.67
2019-01-25T19:18:24.621Z,7.69
2019-01-25T19:20:55.654Z,7.68
2019-01-25T19:23:26.176Z,7.66
2019-01-25T19:25:57.990Z,7.61
2019-01-25T19:28:28.689Z,7.64
2019-01-25T19:30:59.292Z,7.65
2019-01-25T19:33:31.700Z,7.64
2019-01-25T19:36:02.538Z,7.64
2019-01-25T19:38:33.151Z,7.58
2019-01-25T19:41:03.953Z,7.59
2019-01-25T19:43:35.660Z,7.59
2019-01-25T19:46:07.739Z,7.58
2019-01-25T19:48:41.301Z,7.54
2019-01-25T19:51:12.236Z,7.50
2019-01-25T19:53:42.835Z,7.50
2019-01-25T19:56:13.613Z,7.48
2019-01-25T19:58:45.578Z,7.47
2019-01-25T20:01:17.734Z,7.53
2019-01-25T20:03:48.375Z,7.53
2019-01-25T20:06:19.224Z,7.50
2019-01-25T20:08:50.336Z,7.51
2019-01-25T20:11:20.816Z,7.52
2019-01-25T20:13:52.101Z,7.48
2019-01-25T20:16:23.391Z,7.47
2019-01-25T20:18:54.205Z,7.50
2019-01-25T20:21:24.706Z,7.45
2019-01-25T20:23:56.321Z,7.45
2019-01-25T20:26:27.344Z,7.43
2019-01-25T20:28:59.710Z,7.43
2019-01-25T20:31:31.518Z,7.42
2019-01-25T20:34:03.321Z,7.44
2019-01-25T20:36:34.081Z,7.44
2019-01-25T20:39:06.201Z,7.42
2019-01-25T20:41:36.618Z,7.44
2019-01-25T20:44:07.139Z,7.40
2019-01-25T20:46:38.276Z,7.43
2019-01-25T20:49:08.839Z,7.45
2019-01-25T20:51:39.576Z,7.44
2019-01-25T20:54:10.653Z,7.41
2019-01-25T20:56:41.219Z,7.45
2019-01-25T20:59:13.022Z,7.49
2019-01-25T21:01:44.005Z,7.47
2019-01-25T21:04:15.061Z,7.45
2019-01-25T21:06:45.442Z,7.45
2019-01-25T21:09:15.961Z,7.51
2019-01-25T21:11:46.651Z,7.49
2019-01-25T21:14:17.158Z,7.48
2019-01-25T21:16:47.979Z,7.51
2019-01-25T21:19:18.741Z,7.52
2019-01-25T21:21:49.160Z,7.50
2019-01-25T21:24:20.148Z,7.52
2019-01-25T21:26:50.824Z,7.44
2019-01-25T21:29:22.354Z,7.44
2019-01-25T21:31:54.658Z,7.44
2019-01-25T21:34:25.122Z,7.46
2019-01-25T21:36:55.549Z,7.47
2019-01-25T21:39:26.366Z,7.49
2019-01-25T21:41:57.447Z,7.46
2019-01-25T21:44:28.222Z,7.47
2019-01-25T21:46:58.875Z,7.45
2019-01-25T21:49:29.794Z,7.43
2019-01-25T21:52:00.208Z,7.45
2019-01-25T21:54:31.758Z,7.48
2019-01-25T21:57:02.199Z,7.50
2019-01-25T21:59:32.601Z,7.49
2019-01-25T22:02:03.243Z,7.47
2019-01-25T22:04:33.623Z,7.47
2019-01-25T22:07:04.086Z,7.48
2019-01-25T22:09:35.129Z,7.43
2019-01-25T22:12:06.109Z,7.45
2019-01-25T22:14:36.981Z,7.46
2019-01-25T22:17:07.429Z,7.47
2019-01-25T22:19:37.886Z,7.49
2019-01-25T22:22:08.341Z,7.49
2019-01-25T22:24:38.737Z,7.51
2019-01-25T22:27:09.202Z,7.55
2019-01-25T22:29:40.018Z,7.55
2019-01-25T22:32:10.456Z,7.56
2019-01-25T22:34:40.750Z,7.53
2019-01-25T22:37:11.147Z,7.53
2019-01-25T22:39:42.103Z,7.55
2019-01-25T22:42:12.422Z,7.50
2019-01-25T22:44:42.790Z,7.52
2019-01-25T22:47:20.080Z,7.50
2019-01-25T22:49:45.459Z,7.50
2019-01-25T22:52:15.842Z,7.52
2019-01-25T22:54:46.381Z,7.49
2019-01-25T22:57:17.361Z,7.44
2019-01-25T22:59:47.982Z,7.45
2019-01-25T23:02:18.941Z,7.47
2019-01-25T23:05:20.726Z,7.46
2019-01-25T23:07:52.119Z,7.47
2019-01-25T23:10:24.395Z,7.44
2019-01-25T23:12:55.085Z,7.45
2019-01-25T23:15:26.248Z,7.43
2019-01-25T23:17:57.132Z,7.46
2019-01-25T23:20:27.683Z,7.47
2019-01-25T23:22:58.445Z,7.46
2019-01-25T23:25:28.993Z,7.43
2019-01-25T23:27:59.742Z,7.45
2019-01-25T23:30:30.354Z,7.47
2019-01-25T23:33:01.252Z,7.45
2019-01-25T23:35:31.959Z,7.48
2019-01-25T23:38:02.767Z,7.50
2019-01-25T23:40:34.351Z,7.45
2019-01-25T23:43:05.048Z,7.42
2019-01-25T23:45:36.790Z,7.44
2019-01-25T23:48:07.541Z,7.45
2019-01-25T23:50:37.942Z,7.47
2019-01-25T23:53:08.745Z,7.46
2019-01-25T23:55:39.289Z,7.45
2019-01-25T23:58:09.661Z,7.46
